createdAt,value
2017-10-26T00:00:40.438Z,0
2017-10-26T00:01:43.213Z,0
2017-10-26T00:02:45.638Z,0
2017-10-26T00:03:48.068Z,0
2017-10-26T00:04:50.844Z,0
2017-10-26T00:05:53.637Z,0
2017-10-26T00:06:56.069Z,0
2017-10-26T00:07:58.485Z,0
2017-10-26T00:09:00.917Z,0
2017-10-26T00:10:03.343Z,0
2017-10-26T00:11:05.768Z,0
2017-10-26T00:12:08.196Z,0
2017-10-26T00:13:10.624Z,0
2017-10-26T00:14:13.037Z,0
2017-10-26T00:15:15.478Z,0
2017-10-26T00:16:17.905Z,0
2017-10-26T00:17:20.324Z,0
2017-10-26T00:18:22.758Z,0
2017-10-26T00:19:25.547Z,0
2017-10-26T00:20:27.962Z,0
2017-10-26T00:21:30.386Z,0
2017-10-26T00:22:33.153Z,0
2017-10-26T00:23:35.579Z,0
2017-10-26T00:24:38.016Z,0
2017-10-26T00:25:40.816Z,0
2017-10-26T00:26:43.231Z,0
2017-10-26T00:27:45.659Z,0
2017-10-26T00:28:48.080Z,0
2017-10-26T00:29:50.515Z,0
2017-10-26T00:30:52.950Z,0
2017-10-26T00:31:55.377Z,0
2017-10-26T00:32:57.803Z,0
2017-10-26T00:34:00.232Z,0
2017-10-26T00:35:02.675Z,0
2017-10-26T00:36:05.100Z,0
2017-10-26T00:37:07.526Z,0
2017-10-26T00:38:09.951Z,0
2017-10-26T00:39:12.373Z,0
2017-10-26T00:40:14.809Z,0
2017-10-26T00:41:17.235Z,0
2017-10-26T00:42:19.664Z,0
2017-10-26T00:43:22.088Z,0
2017-10-26T00:44:24.517Z,0
2017-10-26T00:45:26.950Z,0
2017-10-26T00:46:29.376Z,0
2017-10-26T00:47:31.811Z,0
2017-10-26T00:48:34.217Z,0
2017-10-26T00:49:37.022Z,0
2017-10-26T00:50:39.445Z,0
2017-10-26T00:51:41.870Z,0
2017-10-26T00:52:44.300Z,0
2017-10-26T00:53:46.727Z,0
2017-10-26T00:54:49.513Z,0
2017-10-26T00:55:51.952Z,0
2017-10-26T00:56:54.376Z,0
2017-10-26T00:57:56.816Z,0
2017-10-26T00:58:59.240Z,0
2017-10-26T01:00:01.690Z,0
2017-10-26T01:01:04.101Z,0
2017-10-26T01:02:06.536Z,0
2017-10-26T01:03:09.309Z,0
2017-10-26T01:04:11.737Z,0
2017-10-26T01:05:14.536Z,0
2017-10-26T01:06:16.965Z,0
2017-10-26T01:07:19.400Z,0
2017-10-26T01:08:21.824Z,0
2017-10-26T01:09:24.242Z,0
2017-10-26T01:10:27.026Z,0
2017-10-26T01:11:29.459Z,0
2017-10-26T01:12:31.881Z,0
2017-10-26T01:13:34.681Z,0
2017-10-26T01:14:37.127Z,0
2017-10-26T01:15:39.905Z,0
2017-10-26T01:16:42.330Z,0
2017-10-26T01:17:44.759Z,0
2017-10-26T01:18:47.891Z,0
2017-10-26T01:19:50.316Z,0
2017-10-26T01:20:53.098Z,0
2017-10-26T01:21:55.520Z,0
2017-10-26T01:22:57.953Z,0
2017-10-26T01:24:00.746Z,0
2017-10-26T01:25:03.539Z,0
2017-10-26T01:26:06.325Z,0
2017-10-26T01:27:08.760Z,0
2017-10-26T01:28:11.204Z,0
2017-10-26T01:29:13.615Z,0
2017-10-26T01:30:16.038Z,0
2017-10-26T01:31:18.472Z,0
2017-10-26T01:32:20.891Z,0
2017-10-26T01:33:23.330Z,0
2017-10-26T01:34:25.749Z,0
2017-10-26T01:35:28.175Z,0
2017-10-26T01:36:30.612Z,0
2017-10-26T01:37:33.392Z,0
2017-10-26T01:38:35.827Z,0
2017-10-26T01:39:38.256Z,0
2017-10-26T01:40:40.666Z,0
2017-10-26T01:41:43.101Z,0
2017-10-26T01:42:45.522Z,0
2017-10-26T01:43:47.956Z,0
2017-10-26T01:44:50.382Z,0
2017-10-26T01:45:52.811Z,0
2017-10-26T01:46:55.229Z,0
2017-10-26T01:47:57.657Z,0
2017-10-26T01:49:00.090Z,0
2017-10-26T01:50:02.520Z,0
2017-10-26T01:51:04.961Z,0
2017-10-26T01:52:07.394Z,0
2017-10-26T01:53:09.829Z,0
2017-10-26T01:54:12.262Z,0
2017-10-26T01:55:14.680Z,0
2017-10-26T01:56:17.103Z,0
2017-10-26T01:57:19.531Z,0
2017-10-26T01:58:21.959Z,0
2017-10-26T01:59:24.379Z,0
2017-10-26T02:00:27.167Z,0
2017-10-26T02:01:29.594Z,0
2017-10-26T02:02:32.374Z,0
2017-10-26T02:03:34.803Z,0
2017-10-26T02:04:37.227Z,0
2017-10-26T02:05:39.659Z,0
2017-10-26T02:06:42.103Z,0
2017-10-26T02:07:44.524Z,0
2017-10-26T02:08:46.954Z,0
2017-10-26T02:09:49.371Z,0
2017-10-26T02:10:51.805Z,0
2017-10-26T02:11:54.227Z,0
2017-10-26T02:12:56.661Z,0
2017-10-26T02:13:59.080Z,0
2017-10-26T02:15:01.510Z,0
2017-10-26T02:16:03.948Z,0
2017-10-26T02:17:06.375Z,0
2017-10-26T02:18:08.805Z,0
2017-10-26T02:19:11.241Z,0
2017-10-26T02:20:13.667Z,0
2017-10-26T02:21:16.100Z,0
2017-10-26T02:22:18.529Z,0
2017-10-26T02:23:20.939Z,0
2017-10-26T02:24:23.757Z,0
2017-10-26T02:25:26.186Z,0
2017-10-26T02:26:28.609Z,0
2017-10-26T02:27:31.044Z,0
2017-10-26T02:28:33.457Z,0
2017-10-26T02:29:35.887Z,0
2017-10-26T02:30:38.327Z,0
2017-10-26T02:31:40.753Z,0
2017-10-26T02:32:43.188Z,0
2017-10-26T02:33:45.969Z,0
2017-10-26T02:34:48.758Z,0
2017-10-26T02:35:51.200Z,0
2017-10-26T02:36:53.630Z,0
2017-10-26T02:37:56.047Z,0
2017-10-26T02:38:58.829Z,0
2017-10-26T02:40:01.632Z,0
2017-10-26T02:41:04.065Z,0
2017-10-26T02:42:06.489Z,0
2017-10-26T02:43:08.924Z,0
2017-10-26T02:44:11.347Z,0
2017-10-26T02:45:13.772Z,0
2017-10-26T02:46:16.198Z,0
2017-10-26T02:47:18.626Z,0
2017-10-26T02:48:21.044Z,0
2017-10-26T02:49:23.472Z,0
2017-10-26T02:50:25.895Z,0
2017-10-26T02:51:28.322Z,0
2017-10-26T02:52:30.744Z,0
2017-10-26T02:53:33.176Z,0
2017-10-26T02:54:35.599Z,0
2017-10-26T02:55:38.034Z,0
2017-10-26T02:56:40.458Z,0
2017-10-26T02:57:43.245Z,0
2017-10-26T02:58:45.664Z,0
2017-10-26T02:59:48.090Z,0
2017-10-26T03:00:50.511Z,0
2017-10-26T03:01:52.952Z,0
2017-10-26T03:02:55.361Z,0
2017-10-26T03:03:57.801Z,0
2017-10-26T03:05:00.582Z,0
2017-10-26T03:06:03.009Z,0
2017-10-26T03:07:05.439Z,0
2017-10-26T03:08:07.874Z,0
2017-10-26T03:09:10.286Z,0
2017-10-26T03:10:12.711Z,0
2017-10-26T03:11:15.149Z,0
2017-10-26T03:12:17.576Z,0
2017-10-26T03:13:19.994Z,0
2017-10-26T03:14:22.435Z,0
2017-10-26T03:15:24.860Z,0
2017-10-26T03:16:27.281Z,0
2017-10-26T03:17:29.709Z,0
2017-10-26T03:18:32.135Z,0
2017-10-26T03:19:34.557Z,0
2017-10-26T03:20:36.998Z,0
2017-10-26T03:21:39.413Z,0
2017-10-26T03:22:41.848Z,0
2017-10-26T03:23:44.283Z,0
2017-10-26T03:24:46.702Z,0
2017-10-26T03:25:49.139Z,0
2017-10-26T03:26:51.925Z,0
2017-10-26T03:27:54.339Z,0
2017-10-26T03:28:56.771Z,0
2017-10-26T03:29:59.205Z,0
2017-10-26T03:31:01.631Z,0
2017-10-26T03:32:04.068Z,0
2017-10-26T03:33:06.494Z,0
2017-10-26T03:34:08.919Z,0
2017-10-26T03:35:11.350Z,0
2017-10-26T03:36:13.772Z,0
2017-10-26T03:37:16.207Z,0
2017-10-26T03:38:18.625Z,0
2017-10-26T03:39:21.062Z,0
2017-10-26T03:40:23.487Z,0
2017-10-26T03:41:26.282Z,0
2017-10-26T03:42:28.709Z,0
2017-10-26T03:43:31.142Z,0
2017-10-26T03:44:33.564Z,0
2017-10-26T03:45:36.004Z,0
2017-10-26T03:46:38.425Z,0
2017-10-26T03:47:40.847Z,0
2017-10-26T03:48:43.274Z,0
2017-10-26T03:49:45.707Z,0
2017-10-26T03:50:48.133Z,0
2017-10-26T03:51:50.556Z,0
2017-10-26T03:52:52.978Z,0
2017-10-26T03:53:55.743Z,0
2017-10-26T03:54:58.177Z,0
2017-10-26T03:56:00.611Z,0
2017-10-26T03:57:03.034Z,0
2017-10-26T03:58:05.469Z,0
2017-10-26T03:59:07.891Z,0
2017-10-26T04:00:10.327Z,0
2017-10-26T04:01:12.754Z,0
2017-10-26T04:02:15.177Z,0
2017-10-26T04:03:17.604Z,0
2017-10-26T04:04:20.030Z,0
2017-10-26T04:05:22.453Z,0
2017-10-26T04:06:24.882Z,0
2017-10-26T04:07:27.665Z,0
2017-10-26T04:08:30.092Z,0
2017-10-26T04:09:32.526Z,0
2017-10-26T04:10:34.940Z,0
2017-10-26T04:11:37.379Z,0
2017-10-26T04:12:39.799Z,0
2017-10-26T04:13:42.222Z,0
2017-10-26T04:14:44.650Z,0
2017-10-26T04:15:47.073Z,0
2017-10-26T04:16:49.498Z,0
2017-10-26T04:17:51.937Z,0
2017-10-26T04:18:54.356Z,0
2017-10-26T04:19:56.786Z,0
2017-10-26T04:20:59.212Z,0
2017-10-26T04:22:01.647Z,0
2017-10-26T04:23:04.067Z,0
2017-10-26T04:24:06.501Z,0
2017-10-26T04:25:08.928Z,0
2017-10-26T04:26:11.363Z,0
2017-10-26T04:27:13.788Z,0
2017-10-26T04:28:16.577Z,0
2017-10-26T04:29:18.998Z,0
2017-10-26T04:30:21.425Z,0
2017-10-26T04:31:23.859Z,0
2017-10-26T04:32:26.641Z,0
2017-10-26T04:33:29.064Z,0
2017-10-26T04:34:31.844Z,0
2017-10-26T04:35:34.272Z,0
2017-10-26T04:36:36.704Z,0
2017-10-26T04:37:39.134Z,0
2017-10-26T04:38:41.560Z,0
2017-10-26T04:39:43.981Z,0
2017-10-26T04:40:46.414Z,0
2017-10-26T04:41:48.843Z,0
2017-10-26T04:42:51.258Z,0
2017-10-26T04:43:53.708Z,0
2017-10-26T04:44:56.134Z,0
2017-10-26T04:45:58.554Z,0
2017-10-26T04:47:00.988Z,0
2017-10-26T04:48:03.773Z,0
2017-10-26T04:49:06.369Z,0
2017-10-26T04:50:08.814Z,0
2017-10-26T04:51:11.586Z,0
2017-10-26T04:52:14.014Z,0
2017-10-26T04:53:16.454Z,0
2017-10-26T04:54:18.879Z,0
2017-10-26T04:55:21.311Z,0
2017-10-26T04:56:23.749Z,0
2017-10-26T04:57:26.173Z,0
2017-10-26T04:58:28.968Z,0
2017-10-26T04:59:31.397Z,0
2017-10-26T05:00:33.814Z,0
2017-10-26T05:01:36.249Z,0
2017-10-26T05:02:38.681Z,0
2017-10-26T05:03:41.456Z,0
2017-10-26T05:04:43.890Z,0
2017-10-26T05:05:46.314Z,0
2017-10-26T05:06:48.743Z,0
2017-10-26T05:07:51.185Z,0
2017-10-26T05:08:53.620Z,0
2017-10-26T05:09:56.031Z,0
2017-10-26T05:10:58.463Z,0
2017-10-26T05:12:00.898Z,0
2017-10-26T05:13:03.329Z,0
2017-10-26T05:14:05.755Z,0
2017-10-26T05:15:08.261Z,0
2017-10-26T05:16:10.678Z,0
2017-10-26T05:17:13.117Z,0
2017-10-26T05:18:15.553Z,0
2017-10-26T05:19:17.979Z,0
2017-10-26T05:20:20.408Z,0
2017-10-26T05:21:22.839Z,0
2017-10-26T05:22:25.260Z,0
2017-10-26T05:23:27.686Z,0
2017-10-26T05:24:40.310Z,0
2017-10-26T05:25:45.027Z,0
2017-10-26T05:26:47.457Z,0
2017-10-26T05:27:49.887Z,0
2017-10-26T05:28:52.310Z,0
2017-10-26T05:29:55.566Z,0
2017-10-26T05:30:58.093Z,0
2017-10-26T05:32:00.544Z,0
2017-10-26T05:33:02.966Z,0
2017-10-26T05:34:05.381Z,0
2017-10-26T05:35:08.191Z,0
2017-10-26T05:36:10.613Z,0
2017-10-26T05:37:13.040Z,0
2017-10-26T05:38:15.470Z,0
2017-10-26T05:39:17.894Z,0
2017-10-26T05:40:20.330Z,0
2017-10-26T05:41:23.101Z,0
2017-10-26T05:42:25.533Z,0
2017-10-26T05:43:27.967Z,0
2017-10-26T05:44:30.399Z,0
2017-10-26T05:45:32.828Z,0
2017-10-26T05:46:35.255Z,0
2017-10-26T05:47:38.050Z,0
2017-10-26T05:48:40.473Z,0
2017-10-26T05:49:42.901Z,0
2017-10-26T05:50:45.330Z,0
2017-10-26T05:51:47.752Z,0
2017-10-26T05:52:50.190Z,0
2017-10-26T05:53:53.331Z,0
2017-10-26T05:54:55.765Z,0
2017-10-26T05:55:58.197Z,0
2017-10-26T05:57:00.616Z,0
2017-10-26T05:58:03.042Z,0
2017-10-26T05:59:05.477Z,0
2017-10-26T06:00:07.906Z,0
2017-10-26T06:01:10.334Z,0
2017-10-26T06:02:12.763Z,0
2017-10-26T06:03:15.192Z,0
2017-10-26T06:04:17.975Z,0
2017-10-26T06:05:20.399Z,0
2017-10-26T06:06:22.822Z,0
2017-10-26T06:07:25.258Z,0
2017-10-26T06:08:27.678Z,0
2017-10-26T06:09:30.112Z,0
2017-10-26T06:10:32.536Z,0
2017-10-26T06:11:34.969Z,1
2017-10-26T06:12:37.743Z,1
2017-10-26T06:13:40.177Z,1
2017-10-26T06:14:42.608Z,1
2017-10-26T06:15:45.033Z,1
2017-10-26T06:16:47.462Z,1
2017-10-26T06:17:49.888Z,1
2017-10-26T06:18:52.311Z,1
2017-10-26T06:19:54.740Z,1
2017-10-26T06:20:57.162Z,2
2017-10-26T06:21:59.954Z,2
2017-10-26T06:23:02.389Z,2
2017-10-26T06:24:04.812Z,2
2017-10-26T06:25:07.238Z,2
2017-10-26T06:26:09.676Z,3
2017-10-26T06:27:12.098Z,3
2017-10-26T06:28:14.526Z,3
2017-10-26T06:29:17.314Z,3
2017-10-26T06:30:19.744Z,3
2017-10-26T06:31:22.178Z,3
2017-10-26T06:32:24.607Z,4
2017-10-26T06:33:27.019Z,4
2017-10-26T06:34:29.458Z,4
2017-10-26T06:35:31.886Z,4
2017-10-26T06:36:34.322Z,4
2017-10-26T06:37:36.737Z,5
2017-10-26T06:38:39.181Z,5
2017-10-26T06:39:41.602Z,5
2017-10-26T06:40:44.020Z,5
2017-10-26T06:41:46.454Z,5
2017-10-26T06:42:48.875Z,5
2017-10-26T06:43:51.315Z,6
2017-10-26T06:44:53.744Z,6
2017-10-26T06:45:56.516Z,7
2017-10-26T06:46:58.942Z,8
2017-10-26T06:48:01.384Z,8
2017-10-26T06:49:03.805Z,7
2017-10-26T06:50:41.342Z,7
2017-10-26T06:51:43.715Z,7
2017-10-26T06:52:46.098Z,7
2017-10-26T06:53:48.478Z,7
2017-10-26T06:54:50.854Z,7
2017-10-26T06:55:53.229Z,7
2017-10-26T06:56:55.608Z,7
2017-10-26T06:57:58.363Z,7
2017-10-26T06:59:00.696Z,7
2017-10-26T07:00:03.080Z,8
2017-10-26T07:01:05.448Z,8
2017-10-26T07:02:08.180Z,9
2017-10-26T07:03:10.564Z,11
2017-10-26T07:04:12.931Z,12
2017-10-26T07:05:15.306Z,14
2017-10-26T07:06:17.688Z,16
2017-10-26T07:07:20.052Z,18
2017-10-26T07:08:22.431Z,18
2017-10-26T07:09:24.810Z,19
2017-10-26T07:10:27.176Z,19
2017-10-26T07:11:29.551Z,20
2017-10-26T07:12:31.932Z,22
2017-10-26T07:13:34.307Z,23
2017-10-26T07:14:37.027Z,22
2017-10-26T07:15:39.404Z,23
2017-10-26T07:16:41.790Z,23
2017-10-26T07:17:44.169Z,22
2017-10-26T07:18:46.547Z,22
2017-10-26T07:19:48.919Z,22
2017-10-26T07:20:51.665Z,22
2017-10-26T07:21:54.058Z,23
2017-10-26T07:22:56.420Z,24
2017-10-26T07:23:59.169Z,24
2017-10-26T07:25:01.536Z,24
2017-10-26T07:26:03.917Z,24
2017-10-26T07:27:06.289Z,25
2017-10-26T07:28:09.035Z,26
2017-10-26T07:29:11.409Z,27
2017-10-26T07:30:14.147Z,26
2017-10-26T07:31:16.516Z,26
2017-10-26T07:32:18.896Z,25
2017-10-26T07:33:21.276Z,24
2017-10-26T07:34:23.653Z,24
2017-10-26T07:35:26.031Z,24
2017-10-26T07:36:28.404Z,24
2017-10-26T07:37:30.777Z,25
2017-10-26T07:38:33.154Z,25
2017-10-26T07:39:35.524Z,25
2017-10-26T07:40:37.893Z,24
2017-10-26T07:41:40.268Z,24
2017-10-26T07:42:42.987Z,24
2017-10-26T07:43:45.366Z,24
2017-10-26T07:44:48.087Z,25
2017-10-26T07:45:50.471Z,27
2017-10-26T07:46:52.853Z,30
2017-10-26T07:47:55.222Z,32
2017-10-26T07:48:57.957Z,34
2017-10-26T07:50:00.325Z,34
2017-10-26T07:51:02.710Z,37
2017-10-26T07:52:05.082Z,38
2017-10-26T07:53:07.460Z,39
2017-10-26T07:54:09.838Z,40
2017-10-26T07:55:12.219Z,39
2017-10-26T07:56:14.597Z,41
2017-10-26T07:57:16.959Z,41
2017-10-26T07:58:19.339Z,41
2017-10-26T07:59:22.079Z,41
2017-10-26T08:00:24.454Z,41
2017-10-26T08:01:26.825Z,42
2017-10-26T08:02:29.202Z,41
2017-10-26T08:03:31.575Z,35
2017-10-26T08:04:34.303Z,39
2017-10-26T08:05:36.676Z,47
2017-10-26T08:06:39.044Z,50
2017-10-26T08:07:41.428Z,50
2017-10-26T08:08:43.800Z,47
2017-10-26T08:09:46.181Z,47
2017-10-26T08:10:48.549Z,46
2017-10-26T08:11:50.923Z,46
2017-10-26T08:12:53.297Z,41
2017-10-26T08:13:55.676Z,42
2017-10-26T08:14:58.052Z,39
2017-10-26T08:16:00.436Z,35
2017-10-26T08:17:02.813Z,30
2017-10-26T08:18:05.197Z,29
2017-10-26T08:19:07.566Z,30
2017-10-26T08:20:09.947Z,33
2017-10-26T08:21:12.659Z,36
2017-10-26T08:22:15.042Z,36
2017-10-26T08:23:17.406Z,36
2017-10-26T08:24:19.782Z,34
2017-10-26T08:25:22.161Z,32
2017-10-26T08:26:24.535Z,32
2017-10-26T08:27:26.900Z,34
2017-10-26T08:28:29.282Z,33
2017-10-26T08:29:31.656Z,34
2017-10-26T08:30:34.038Z,34
2017-10-26T08:31:36.439Z,34
2017-10-26T08:32:38.785Z,33
2017-10-26T08:33:41.156Z,31
2017-10-26T08:34:43.537Z,31
2017-10-26T08:35:45.920Z,32
2017-10-26T08:36:48.292Z,33
2017-10-26T08:37:51.040Z,36
2017-10-26T08:38:53.410Z,36
2017-10-26T08:39:55.788Z,37
2017-10-26T08:40:58.169Z,40
2017-10-26T08:42:00.545Z,41
2017-10-26T08:43:02.925Z,43
2017-10-26T08:44:05.306Z,44
2017-10-26T08:45:07.668Z,49
2017-10-26T08:46:10.049Z,51
2017-10-26T08:47:12.424Z,49
2017-10-26T08:48:14.794Z,46
2017-10-26T08:49:17.517Z,43
2017-10-26T08:50:19.895Z,35
2017-10-26T08:51:22.266Z,26
2017-10-26T08:52:24.644Z,24
2017-10-26T08:53:27.019Z,30
2017-10-26T08:54:29.391Z,35
2017-10-26T08:55:31.769Z,32
2017-10-26T08:56:34.155Z,36
2017-10-26T08:57:36.532Z,47
2017-10-26T08:58:38.908Z,57
2017-10-26T08:59:41.293Z,57
2017-10-26T09:00:43.667Z,50
2017-10-26T09:01:46.054Z,44
2017-10-26T09:02:48.432Z,41
2017-10-26T09:03:50.794Z,44
2017-10-26T09:04:53.182Z,48
2017-10-26T09:05:55.558Z,50
2017-10-26T09:06:57.947Z,49
2017-10-26T09:08:00.307Z,48
2017-10-26T09:09:02.701Z,49
2017-10-26T09:10:05.066Z,49
2017-10-26T09:11:07.462Z,49
2017-10-26T09:12:09.815Z,49
2017-10-26T09:13:12.184Z,46
2017-10-26T09:14:14.565Z,40
2017-10-26T09:15:17.291Z,38
2017-10-26T09:16:19.659Z,40
2017-10-26T09:17:22.036Z,46
2017-10-26T09:18:24.429Z,46
2017-10-26T09:19:26.799Z,49
2017-10-26T09:20:29.176Z,46
2017-10-26T09:21:31.557Z,50
2017-10-26T09:22:33.932Z,55
2017-10-26T09:23:36.321Z,59
2017-10-26T09:24:38.685Z,62
2017-10-26T09:25:41.059Z,61
2017-10-26T09:26:43.806Z,55
2017-10-26T09:27:46.191Z,46
2017-10-26T09:28:48.925Z,37
2017-10-26T09:29:51.296Z,33
2017-10-26T09:30:54.028Z,33
2017-10-26T09:31:56.408Z,41
2017-10-26T09:32:59.131Z,45
2017-10-26T09:34:01.514Z,42
2017-10-26T09:35:03.893Z,41
2017-10-26T09:36:06.272Z,41
2017-10-26T09:37:08.659Z,39
2017-10-26T09:38:11.034Z,37
2017-10-26T09:39:13.419Z,32
2017-10-26T09:40:15.793Z,27
2017-10-26T09:41:18.177Z,28
2017-10-26T09:42:20.537Z,31
2017-10-26T09:43:22.928Z,35
2017-10-26T09:44:25.661Z,37
2017-10-26T09:45:28.041Z,36
2017-10-26T09:46:30.417Z,38
2017-10-26T09:47:32.803Z,43
2017-10-26T09:48:35.169Z,40
2017-10-26T09:49:37.556Z,38
2017-10-26T09:50:39.929Z,36
2017-10-26T09:51:42.319Z,36
2017-10-26T09:52:44.695Z,33
2017-10-26T09:53:47.078Z,30
2017-10-26T09:54:49.455Z,27
2017-10-26T09:55:51.838Z,25
2017-10-26T09:56:54.208Z,28
2017-10-26T09:57:56.590Z,34
2017-10-26T09:58:59.321Z,42
2017-10-26T10:00:01.898Z,36
2017-10-26T10:01:04.280Z,38
2017-10-26T10:02:06.661Z,41
2017-10-26T10:03:09.029Z,43
2017-10-26T10:04:11.409Z,43
2017-10-26T10:05:13.786Z,34
2017-10-26T10:06:16.168Z,34
2017-10-26T10:07:18.540Z,35
2017-10-26T10:08:21.280Z,31
2017-10-26T10:09:23.661Z,29
2017-10-26T10:10:26.022Z,30
2017-10-26T10:11:28.403Z,24
2017-10-26T10:12:30.783Z,22
2017-10-26T10:13:33.536Z,27
2017-10-26T10:14:35.913Z,30
2017-10-26T10:15:38.651Z,30
2017-10-26T10:16:41.024Z,31
2017-10-26T10:17:43.407Z,30
2017-10-26T10:18:45.784Z,29
2017-10-26T10:19:48.153Z,30
2017-10-26T10:20:50.533Z,33
2017-10-26T10:21:52.904Z,33
2017-10-26T10:22:55.288Z,34
2017-10-26T10:23:58.051Z,40
2017-10-26T10:25:00.420Z,49
2017-10-26T10:26:02.805Z,47
2017-10-26T10:27:05.184Z,35
2017-10-26T10:28:07.570Z,37
2017-10-26T10:29:09.950Z,43
2017-10-26T10:30:12.333Z,36
2017-10-26T10:31:15.050Z,37
2017-10-26T10:32:17.445Z,36
2017-10-26T10:33:19.816Z,33
2017-10-26T10:34:22.184Z,28
2017-10-26T10:35:24.566Z,33
2017-10-26T10:36:26.941Z,31
2017-10-26T10:37:29.323Z,44
2017-10-26T10:38:31.713Z,41
2017-10-26T10:39:34.435Z,32
2017-10-26T10:40:36.817Z,39
2017-10-26T10:41:39.189Z,23
2017-10-26T10:42:41.575Z,22
2017-10-26T10:43:43.958Z,21
2017-10-26T10:44:46.332Z,22
2017-10-26T10:45:48.716Z,21
2017-10-26T10:46:51.093Z,32
2017-10-26T10:47:53.471Z,39
2017-10-26T10:48:56.209Z,37
2017-10-26T10:49:58.585Z,37
2017-10-26T10:51:00.955Z,32
2017-10-26T10:52:03.341Z,36
2017-10-26T10:53:05.713Z,52
2017-10-26T10:54:08.089Z,50
2017-10-26T10:55:10.475Z,40
2017-10-26T10:56:12.832Z,41
2017-10-26T10:57:15.219Z,58
2017-10-26T10:58:17.946Z,54
2017-10-26T10:59:20.322Z,49
2017-10-26T11:00:22.710Z,45
2017-10-26T11:01:25.085Z,49
2017-10-26T11:02:27.815Z,54
2017-10-26T11:03:30.196Z,51
2017-10-26T11:04:32.576Z,52
2017-10-26T11:05:34.955Z,47
2017-10-26T11:06:37.324Z,40
2017-10-26T11:07:40.430Z,39
2017-10-26T11:08:42.803Z,43
2017-10-26T11:09:45.173Z,34
2017-10-26T11:10:47.554Z,32
2017-10-26T11:11:49.934Z,34
2017-10-26T11:12:52.313Z,27
2017-10-26T11:13:54.695Z,22
2017-10-26T11:14:57.063Z,25
2017-10-26T11:15:59.446Z,40
2017-10-26T11:17:01.825Z,40
2017-10-26T11:18:04.199Z,51
2017-10-26T11:19:06.571Z,51
2017-10-26T11:20:08.950Z,46
2017-10-26T11:21:11.708Z,43
2017-10-26T11:22:14.440Z,40
2017-10-26T11:23:16.821Z,61
2017-10-26T11:24:19.188Z,56
2017-10-26T11:25:21.561Z,52
2017-10-26T11:26:23.947Z,50
2017-10-26T11:27:26.319Z,52
2017-10-26T11:28:28.703Z,69
2017-10-26T11:29:31.074Z,77
2017-10-26T11:30:33.455Z,100
2017-10-26T11:31:35.858Z,89
2017-10-26T11:32:38.230Z,104
2017-10-26T11:33:40.603Z,109
2017-10-26T11:34:42.977Z,102
2017-10-26T11:35:45.356Z,93
2017-10-26T11:36:47.743Z,92
2017-10-26T11:37:50.120Z,85
2017-10-26T11:38:52.505Z,67
2017-10-26T11:39:54.892Z,72
2017-10-26T11:40:57.959Z,70
2017-10-26T11:42:00.359Z,78
2017-10-26T11:43:02.729Z,88
2017-10-26T11:44:05.111Z,60
2017-10-26T11:45:07.896Z,64
2017-10-26T11:46:10.262Z,65
2017-10-26T11:47:12.637Z,55
2017-10-26T11:48:15.022Z,88
2017-10-26T11:49:17.399Z,98
2017-10-26T11:50:19.785Z,73
2017-10-26T11:51:22.201Z,87
2017-10-26T11:52:24.578Z,67
2017-10-26T11:53:26.965Z,94
2017-10-26T11:54:29.339Z,88
2017-10-26T11:55:32.073Z,77
2017-10-26T11:56:34.457Z,101
2017-10-26T11:57:36.828Z,80
2017-10-26T11:58:39.213Z,72
2017-10-26T11:59:41.586Z,84
2017-10-26T12:00:43.964Z,94
2017-10-26T12:01:46.691Z,82
2017-10-26T12:02:49.078Z,77
2017-10-26T12:03:51.453Z,66
2017-10-26T12:04:54.190Z,71
2017-10-26T12:05:56.573Z,52
2017-10-26T12:06:58.941Z,42
2017-10-26T12:08:01.326Z,49
2017-10-26T12:09:03.709Z,47
2017-10-26T12:10:06.089Z,47
2017-10-26T12:11:08.471Z,44
2017-10-26T12:12:11.208Z,53
2017-10-26T12:13:13.922Z,50
2017-10-26T12:14:16.317Z,47
2017-10-26T12:15:18.693Z,68
2017-10-26T12:16:21.060Z,56
2017-10-26T12:17:23.446Z,36
2017-10-26T12:18:25.830Z,52
2017-10-26T12:19:28.209Z,55
2017-10-26T12:20:30.620Z,43
2017-10-26T12:21:33.693Z,31
2017-10-26T12:22:36.079Z,32
2017-10-26T12:23:38.466Z,41
2017-10-26T12:24:40.845Z,44
2017-10-26T12:25:43.228Z,53
2017-10-26T12:26:45.605Z,72
2017-10-26T12:27:47.986Z,71
2017-10-26T12:28:50.364Z,76
2017-10-26T12:29:52.742Z,74
2017-10-26T12:30:55.460Z,64
2017-10-26T12:31:57.840Z,79
2017-10-26T12:33:00.256Z,87
2017-10-26T12:34:02.638Z,86
2017-10-26T12:35:05.015Z,95
2017-10-26T12:36:07.397Z,102
2017-10-26T12:37:09.780Z,95
2017-10-26T12:38:12.498Z,96
2017-10-26T12:39:14.884Z,91
2017-10-26T12:40:17.276Z,91
2017-10-26T12:41:19.645Z,88
2017-10-26T12:42:22.028Z,84
2017-10-26T12:43:24.761Z,82
2017-10-26T12:44:27.140Z,78
2017-10-26T12:45:29.518Z,74
2017-10-26T12:46:31.905Z,70
2017-10-26T12:47:34.267Z,66
2017-10-26T12:48:36.657Z,63
2017-10-26T12:49:39.045Z,59
2017-10-26T12:50:41.440Z,57
2017-10-26T12:51:44.172Z,51
2017-10-26T12:52:46.550Z,51
2017-10-26T12:53:48.931Z,49
2017-10-26T12:54:51.328Z,50
2017-10-26T12:55:53.702Z,46
2017-10-26T12:56:56.097Z,39
2017-10-26T12:57:58.462Z,33
2017-10-26T12:59:00.843Z,28
2017-10-26T13:00:03.232Z,30
2017-10-26T13:01:05.616Z,35
2017-10-26T13:02:07.987Z,36
2017-10-26T13:03:10.367Z,44
2017-10-26T13:04:12.759Z,49
2017-10-26T13:05:15.143Z,49
2017-10-26T13:06:17.513Z,49
2017-10-26T13:07:19.895Z,46
2017-10-26T13:08:22.281Z,51
2017-10-26T13:09:24.659Z,54
2017-10-26T13:10:27.041Z,52
2017-10-26T13:11:29.418Z,50
2017-10-26T13:12:31.803Z,48
2017-10-26T13:13:34.546Z,45
2017-10-26T13:14:36.915Z,42
2017-10-26T13:15:39.297Z,41
2017-10-26T13:16:41.673Z,41
2017-10-26T13:17:44.052Z,39
2017-10-26T13:18:46.452Z,38
2017-10-26T13:19:48.829Z,39
2017-10-26T13:20:51.569Z,39
2017-10-26T13:21:53.956Z,40
2017-10-26T13:22:56.332Z,42
2017-10-26T13:23:58.727Z,47
2017-10-26T13:25:01.106Z,50
2017-10-26T13:26:03.487Z,50
2017-10-26T13:27:05.867Z,50
2017-10-26T13:28:08.971Z,50
2017-10-26T13:29:11.328Z,49
2017-10-26T13:30:13.767Z,50
2017-10-26T13:31:16.141Z,49
2017-10-26T13:32:18.526Z,49
2017-10-26T13:33:20.905Z,48
2017-10-26T13:34:23.305Z,45
2017-10-26T13:35:25.674Z,43
2017-10-26T13:36:28.052Z,41
2017-10-26T13:37:30.429Z,41
2017-10-26T13:38:33.190Z,43
2017-10-26T13:39:35.576Z,47
2017-10-26T13:40:37.954Z,48
2017-10-26T13:41:40.336Z,46
2017-10-26T13:42:42.721Z,43
2017-10-26T13:43:45.104Z,39
2017-10-26T13:44:47.488Z,38
2017-10-26T13:45:49.866Z,37
2017-10-26T13:46:52.592Z,36
2017-10-26T13:47:55.320Z,35
2017-10-26T13:48:57.698Z,36
2017-10-26T13:50:00.081Z,36
2017-10-26T13:51:02.476Z,35
2017-10-26T13:52:04.836Z,35
2017-10-26T13:53:07.230Z,34
2017-10-26T13:54:09.617Z,35
2017-10-26T13:55:11.994Z,35
2017-10-26T13:56:14.379Z,36
2017-10-26T13:57:16.775Z,35
2017-10-26T13:58:19.149Z,31
2017-10-26T13:59:21.542Z,29
2017-10-26T14:00:23.919Z,29
2017-10-26T14:01:26.300Z,29
2017-10-26T14:02:28.680Z,31
2017-10-26T14:03:31.074Z,32
2017-10-26T14:04:33.458Z,32
2017-10-26T14:05:35.832Z,32
2017-10-26T14:06:38.220Z,32
2017-10-26T14:07:40.604Z,32
2017-10-26T14:08:43.003Z,32
2017-10-26T14:09:45.755Z,30
2017-10-26T14:10:48.123Z,28
2017-10-26T14:11:50.509Z,28
2017-10-26T14:12:52.885Z,27
2017-10-26T14:13:55.272Z,25
2017-10-26T14:14:57.653Z,23
2017-10-26T14:16:00.048Z,20
2017-10-26T14:17:02.423Z,19
2017-10-26T14:18:04.811Z,17
2017-10-26T14:19:07.886Z,18
2017-10-26T14:20:10.253Z,19
2017-10-26T14:21:12.645Z,19
2017-10-26T14:22:15.019Z,19
2017-10-26T14:23:17.411Z,20
2017-10-26T14:24:19.779Z,21
2017-10-26T14:25:22.868Z,20
2017-10-26T14:26:25.602Z,19
2017-10-26T14:27:27.993Z,18
2017-10-26T14:28:30.372Z,19
2017-10-26T14:29:32.746Z,19
2017-10-26T14:30:35.129Z,19
2017-10-26T14:31:37.509Z,19
2017-10-26T14:32:39.880Z,19
2017-10-26T14:33:42.266Z,16
2017-10-26T14:34:44.659Z,13
2017-10-26T14:35:47.381Z,12
2017-10-26T14:36:49.777Z,12
2017-10-26T14:37:52.887Z,13
2017-10-26T14:38:55.626Z,14
2017-10-26T14:39:58.006Z,14
2017-10-26T14:41:00.404Z,13
2017-10-26T14:42:02.770Z,15
2017-10-26T14:43:05.153Z,17
2017-10-26T14:44:07.891Z,19
2017-10-26T14:45:10.615Z,20
2017-10-26T14:46:13.310Z,20
2017-10-26T14:47:15.692Z,19
2017-10-26T14:48:18.072Z,18
2017-10-26T14:49:20.451Z,16
2017-10-26T14:50:22.833Z,15
2017-10-26T14:51:25.206Z,14
2017-10-26T14:52:27.660Z,12
2017-10-26T14:53:30.397Z,11
2017-10-26T14:54:32.787Z,10
2017-10-26T14:55:35.183Z,9
2017-10-26T14:56:37.554Z,8
2017-10-26T14:57:39.935Z,10
2017-10-26T14:58:42.315Z,11
2017-10-26T14:59:44.692Z,12
2017-10-26T15:00:47.077Z,13
2017-10-26T15:01:49.453Z,13
2017-10-26T15:02:52.195Z,13
2017-10-26T15:03:54.579Z,13
2017-10-26T15:04:56.953Z,14
2017-10-26T15:05:59.352Z,14